Time;durP1;ratioP1;P1;durP2;ratioP2;P2;SDS_P1;SDS_P2;PMS_P1;PMS_P2;Temp;Humidity;BMP_temperature;BMP_pressure;BME280_temperature;BME280_humidity;BME280_pressure;Samples;Min_cycle;Max_cycle;Signal;HPM_P1;HPM_P2
2024/01/29 16:35:42;;;;;;;10.32;4.45;;;;;;;-1.65;67.27;101461.13;4818309;29;20083;-70
2024/01/29 16:38:28;;;;;;;;;;;;;;;-1.52;67.08;101463.72;4803455;29;20053;-79
2024/01/29 16:41:07;;;;;;;11.82;4.85;;;;;;;-1.52;66.65;101455.16;4788858;29;19977;-72
2024/01/29 16:43:56;;;;;;;11.27;5.20;;;;;;;-1.48;67.05;101459.69;4810729;29;20091;-71
2024/01/29 16:46:47;;;;;;;9.27;4.60;;;;;;;-1.47;67.12;101441.03;4803448;29;20046;-70
2024/01/29 16:49:26;;;;;;;10.02;4.53;;;;;;;-1.55;67.11;101429.47;4804068;29;20045;-70
2024/01/29 16:52:12;;;;;;;10.13;5.22;;;;;;;-1.49;67.67;101411.97;4789970;29;20042;-71
2024/01/29 16:54:58;;;;;;;12.18;5.03;;;;;;;-1.56;67.29;101395.34;4818990;29;20057;-72
2024/01/29 16:57:37;;;;;;;9.93;4.85;;;;;;;-1.49;67.46;101404.28;4804466;29;20048;-72
2024/01/29 17:00:23;;;;;;;12.30;4.70;;;;;;;-1.43;67.00;101412.38;4816339;29;20042;-72
2024/01/29 17:03:02;;;;;;;10.57;4.60;;;;;;;-1.62;66.58;101369.41;4788366;29;20076;-72
2024/01/29 17:05:48;;;;;;;8.48;4.53;;;;;;;-1.57;67.21;101368.06;4800951;29;20049;-68
2024/01/29 17:08:27;;;;;;;11.75;5.38;;;;;;;-1.49;67.32;101365.13;4800529;29;20516;-66
2024/01/29 17:11:13;;;;;;;9.90;4.22;;;;;;;-1.54;67.46;101357.13;4816921;29;20046;-68
2024/01/29 17:13:54;;;;;;;11.10;5.10;;;;;;;-1.62;67.59;101325.16;4801225;29;20069;-67
2024/01/29 17:16:41;;;;;;;8.88;4.80;;;;;;;-1.55;67.64;101329.88;4807410;29;20066;-72
2024/01/29 17:19:22;;;;;;;8.82;4.38;;;;;;;-1.60;67.50;101316.78;4805309;29;20091;-68
2024/01/29 17:22:08;;;;;;;9.38;4.82;;;;;;;-1.59;67.54;101328.78;4797469;29;20137;-68
2024/01/29 17:24:54;;;;;;;10.93;4.95;;;;;;;-1.41;67.82;101422.69;4809132;29;20095;-70
2024/01/29 17:27:33;;;;;;;11.02;5.20;;;;;;;-1.38;67.57;101392.22;4796883;29;20070;-69
2024/01/29 17:30:20;;;;;;;10.55;5.22;;;;;;;-1.11;67.59;101405.03;4798055;29;20046;-68
2024/01/29 17:32:59;;;;;;;11.35;5.10;;;;;;;-1.26;67.62;101397.25;4798355;29;20048;-71
2024/01/29 17:35:52;;;;;;;15.52;6.80;;;;;;;-1.16;67.51;101422.63;4796026;29;20074;-72
2024/01/29 17:38:38;;;;;;;14.10;5.95;;;;;;;-1.11;67.45;101418.69;4796739;29;22625;-69
2024/01/29 17:41:20;;;;;;;15.52;6.32;;;;;;;-1.13;67.21;101407.50;4812633;29;20048;-69
2024/01/29 17:44:08;;;;;;;14.10;6.10;;;;;;;-0.99;67.40;101410.03;4814468;29;20042;-69
2024/01/29 17:46:53;;;;;;;13.90;6.87;;;;;;;-1.02;67.69;101405.63;4814351;29;20054;-68
2024/01/29 17:49:46;;;;;;;15.63;6.13;;;;;;;-1.03;67.25;101391.06;4812942;29;20046;-68
2024/01/29 17:52:32;;;;;;;11.98;5.10;;;;;;;-1.08;67.11;101392.44;4793529;29;20046;-68
2024/01/29 17:55:12;;;;;;;10.48;4.72;;;;;;;-1.08;66.68;101389.91;4813973;29;20058;-68
2024/01/29 17:57:58;;;;;;;12.05;5.40;;;;;;;-1.18;67.13;101373.09;4814622;29;21980;-71
2024/01/29 18:00:44;;;;;;;10.15;5.07;;;;;;;-1.18;68.02;101372.19;4796587;29;20057;-68
2024/01/29 18:03:24;;;;;;;10.68;4.53;;;;;;;-1.12;67.55;101387.91;4807772;29;20050;-70
2024/01/29 18:06:10;;;;;;;9.48;4.65;;;;;;;-1.11;67.38;101390.59;4796982;29;20562;-69
2024/01/29 18:08:49;;;;;;;10.00;4.75;;;;;;;-1.17;67.27;101367.19;4796511;29;20421;-67
2024/01/29 18:11:38;;;;;;;12.00;5.05;;;;;;;-1.33;67.58;101328.69;4800123;29;20050;-66
2024/01/29 18:14:19;;;;;;;13.77;4.85;;;;;;;-1.21;68.06;101335.44;4771034;29;20053;-67
2024/01/29 18:17:05;;;;;;;14.93;5.38;;;;;;;-1.02;67.49;101349.41;4799160;29;20038;-69
2024/01/29 18:19:44;;;;;;;10.43;4.50;;;;;;;-0.98;67.81;101328.34;4815700;29;20135;-69
2024/01/29 18:22:30;;;;;;;12.07;4.47;;;;;;;-1.02;67.70;101354.50;4818435;29;20558;-67
2024/01/29 18:25:16;;;;;;;7.65;3.85;;;;;;;-1.13;67.06;101328.28;4810680;29;20046;-68
2024/01/29 18:27:55;;;;;;;9.05;4.22;;;;;;;-1.05;67.36;101344.09;4816126;29;20130;-68
2024/01/29 18:30:41;;;;;;;8.63;3.95;;;;;;;-1.22;67.69;101323.50;4797297;29;20046;-68
2024/01/29 18:33:20;;;;;;;11.73;4.63;;;;;;;-1.07;67.24;101345.66;4817168;29;20593;-67
2024/01/29 18:36:06;;;;;;;11.75;4.15;;;;;;;-1.11;68.21;101330.94;4812802;29;20046;-69
2024/01/29 18:38:45;;;;;;;11.13;4.20;;;;;;;-1.09;67.48;101311.47;4776682;29;20095;-72
2024/01/29 18:41:31;;;;;;;12.07;4.63;;;;;;;-0.95;67.81;101323.41;4799659;29;20057;-70
2024/01/29 18:44:11;;;;;;;10.43;4.25;;;;;;;-0.97;67.52;101325.00;4814633;29;20065;-69
2024/01/29 18:46:59;;;;;;;8.82;4.18;;;;;;;-1.02;67.59;101318.75;4821313;29;20047;-68
2024/01/29 18:49:38;;;;;;;8.27;4.20;;;;;;;-0.95;67.55;101320.88;4807987;29;20054;-68
2024/01/29 18:52:24;;;;;;;11.60;4.30;;;;;;;-0.95;67.93;101315.75;4804751;29;20118;-66
2024/01/29 18:55:03;;;;;;;9.27;5.35;;;;;;;-1.03;67.88;101311.84;4800790;29;20068;-68
2024/01/29 18:57:49;;;;;;;7.97;4.15;;;;;;;-1.06;68.28;101312.53;4799659;29;20091;-69
2024/01/29 19:00:35;;;;;;;11.10;4.43;;;;;;;-1.21;67.41;101281.78;4797553;29;20133;-70
2024/01/29 19:03:14;;;;;;;10.27;4.25;;;;;;;-1.22;67.87;101272.38;4814954;29;20053;-68
2024/01/29 19:06:00;;;;;;;10.18;4.35;;;;;;;-1.06;67.96;101291.22;4799482;29;20046;-68
2024/01/29 19:08:39;;;;;;;9.15;4.05;;;;;;;-1.07;68.28;101279.22;4815437;29;20050;-68
2024/01/29 19:11:26;;;;;;;8.38;4.13;;;;;;;-0.95;68.45;101284.22;4798773;29;20042;-68
2024/01/29 19:14:05;;;;;;;7.90;4.07;;;;;;;-0.91;68.28;101273.41;4817870;29;20042;-69
2024/01/29 19:16:51;;;;;;;9.40;4.03;;;;;;;-0.86;68.00;101271.13;4812737;29;20139;-69
2024/01/29 19:19:30;;;;;;;7.97;4.20;;;;;;;-0.97;67.68;101279.00;4786244;29;20042;-69
2024/01/29 19:22:16;;;;;;;8.73;4.03;;;;;;;-0.99;68.10;101257.56;4816834;29;21232;-67
2024/01/29 19:25:02;;;;;;;10.23;4.90;;;;;;;-0.91;68.06;101281.06;4816020;29;20458;-67
2024/01/29 19:27:41;;;;;;;14.02;4.55;;;;;;;-1.02;68.22;101271.84;4785329;29;20110;-67
2024/01/29 19:30:27;;;;;;;8.50;4.15;;;;;;;-1.09;67.96;101261.22;4796768;29;20547;-69
2024/01/29 19:33:06;;;;;;;9.73;4.28;;;;;;;-1.09;68.01;101263.78;4815499;29;20047;-71
2024/01/29 19:35:59;;;;;;;8.38;4.18;;;;;;;-0.96;67.78;101257.75;4781697;29;20100;-68
2024/01/29 19:38:45;;;;;;;7.57;4.15;;;;;;;-0.86;67.95;101268.56;4799821;29;20046;-70
2024/01/29 19:41:25;;;;;;;8.93;4.35;;;;;;;-0.95;68.04;101251.84;4779327;29;20074;-67
2024/01/29 19:44:11;;;;;;;11.00;4.82;;;;;;;-0.87;68.08;101275.31;4784241;29;20046;-70
2024/01/29 19:46:50;;;;;;;9.10;4.47;;;;;;;-0.88;68.02;101270.13;4798015;29;20054;-71
2024/01/29 19:49:36;;;;;;;6.90;4.22;;;;;;;-0.84;68.69;101274.66;4797652;29;20305;-68
2024/01/29 19:52:15;;;;;;;10.40;4.68;;;;;;;-0.91;68.26;101235.06;4799404;29;20042;-67
2024/01/29 19:55:01;;;;;;;11.40;4.82;;;;;;;-0.86;67.80;101241.31;4797148;29;20058;-68
2024/01/29 19:57:44;;;;;;;10.30;4.55;;;;;;;-0.84;68.17;101232.06;4766586;29;20124;-68
2024/01/29 20:00:30;;;;;;;9.10;4.43;;;;;;;-0.76;68.36;101235.06;4776882;29;20054;-66
2024/01/29 20:03:16;;;;;;;8.75;4.57;;;;;;;-0.71;68.27;101241.34;4767709;29;20058;-68
2024/01/29 20:05:56;;;;;;;10.60;4.53;;;;;;;-0.75;68.07;101231.72;4797637;29;20040;-68
2024/01/29 20:08:42;;;;;;;9.85;4.38;;;;;;;-0.77;68.81;101233.31;4763488;29;20054;-68
2024/01/29 20:11:21;;;;;;;12.50;4.28;;;;;;;-0.59;68.69;101255.69;4793184;29;20510;-68
2024/01/29 20:14:07;;;;;;;10.23;4.55;;;;;;;-0.57;68.90;101241.31;4796645;29;20053;-66
2024/01/29 20:16:46;;;;;;;11.90;4.97;;;;;;;-0.64;68.43;101238.38;4780904;29;20043;-67
2024/01/29 20:19:32;;;;;;;10.73;4.57;;;;;;;-0.58;68.15;101248.09;4797818;29;20087;-74
2024/01/29 20:22:11;;;;;;;10.75;4.97;;;;;;;-0.62;67.68;101226.56;4781447;29;20053;-68
2024/01/29 20:24:57;;;;;;;9.38;4.70;;;;;;;-0.64;67.75;101214.47;4796959;29;20451;-65
2024/01/29 20:27:36;;;;;;;9.00;4.15;;;;;;;-0.72;67.70;101208.03;4796966;29;20051;-65
2024/01/29 20:30:23;;;;;;;13.77;4.53;;;;;;;-0.85;67.90;101179.16;4795571;29;20051;-67
2024/01/29 20:33:02;;;;;;;9.55;4.07;;;;;;;-0.73;68.02;101189.25;4779077;29;20051;-69
2024/01/29 20:35:55;;;;;;;9.27;4.00;;;;;;;-0.67;68.57;101202.41;4815999;29;20582;-66
2024/01/29 20:38:36;;;;;;;11.23;4.13;;;;;;;-0.65;68.41;101195.69;4809833;29;20187;-68
2024/01/29 20:41:03;;;;;;;10.15;4.25;;;;;;;-0.71;68.59;101182.56;4815461;29;20139;-68
2024/01/29 20:43:29;;;;;;;12.65;4.50;;;;;;;-0.80;68.56;101162.44;4798654;29;20057;-67
2024/01/29 20:45:55;;;;;;;10.85;4.50;;;;;;;-0.74;68.25;101184.06;4813627;29;20066;-68
2024/01/29 20:48:21;;;;;;;9.02;4.85;;;;;;;-0.69;68.20;101168.19;4794722;29;20391;-68
2024/01/29 20:50:47;;;;;;;11.38;4.53;;;;;;;-0.76;68.25;101150.72;4799179;29;20597;-69
2024/01/29 20:53:13;;;;;;;9.80;4.22;;;;;;;-0.62;68.78;101170.31;4798158;29;20054;-67
2024/01/29 20:55:39;;;;;;;10.02;4.50;;;;;;;-0.70;68.74;101145.09;4815026;29;20061;-69
2024/01/29 20:58:05;;;;;;;10.80;5.13;;;;;;;-0.66;68.49;101147.91;4813734;29;20046;-69
2024/01/29 21:00:31;;;;;;;9.27;4.72;;;;;;;-0.59;68.41;101156.81;4816031;29;20664;-71
2024/01/29 21:02:57;;;;;;;10.15;4.65;;;;;;;-0.58;68.25;101161.13;4784251;29;20502;-69
2024/01/29 21:05:23;;;;;;;10.57;4.95;;;;;;;-0.66;68.56;101160.69;4815982;29;20150;-70
2024/01/29 21:07:49;;;;;;;10.95;4.68;;;;;;;-0.66;68.84;101149.59;4783951;29;20480;-67
2024/01/29 21:10:15;;;;;;;10.32;5.22;;;;;;;-0.62;68.81;101146.41;4798088;29;20042;-67
2024/01/29 21:12:41;;;;;;;10.63;4.60;;;;;;;-0.72;68.69;101150.09;4799677;29;20046;-67
2024/01/29 21:15:08;;;;;;;10.95;5.05;;;;;;;-0.64;68.69;101159.13;4816764;29;20502;-66
2024/01/29 21:17:34;;;;;;;9.85;4.75;;;;;;;-0.80;68.87;101136.88;4799232;29;20624;-66
2024/01/29 21:19:59;;;;;;;11.27;5.18;;;;;;;-0.66;69.24;101160.69;4792704;29;20050;-66
2024/01/29 21:22:25;;;;;;;10.18;5.07;;;;;;;-0.78;68.69;101135.28;4799886;29;20071;-66
2024/01/29 21:24:51;;;;;;;12.18;5.32;;;;;;;-0.60;68.99;101155.06;4784255;29;20046;-66
2024/01/29 21:27:17;;;;;;;8.50;4.28;;;;;;;-0.60;69.02;101142.25;4799363;29;20086;-66
2024/01/29 21:29:43;;;;;;;10.02;4.47;;;;;;;-0.64;68.62;101145.44;4784544;29;20140;-67
2024/01/29 21:32:10;;;;;;;12.10;4.93;;;;;;;-0.47;69.44;101159.19;4799531;29;20042;-65
2024/01/29 21:34:36;;;;;;;11.30;4.90;;;;;;;-0.44;68.65;101148.28;4815005;29;20086;-67
2024/01/29 21:37:02;;;;;;;10.45;5.03;;;;;;;-0.47;69.09;101141.31;4815918;29;20066;-70
2024/01/29 21:39:28;;;;;;;9.07;4.60;;;;;;;-0.49;68.29;101135.22;4816214;29;20042;-68
2024/01/29 21:41:54;;;;;;;11.95;5.45;;;;;;;-0.56;68.67;101130.56;4814940;29;20053;-69
2024/01/29 21:44:20;;;;;;;13.40;5.63;;;;;;;-0.43;68.93;101138.13;4815920;29;20053;-69
2024/01/29 21:46:46;;;;;;;10.32;4.63;;;;;;;-0.47;68.51;101125.94;4799809;29;20042;-69
2024/01/29 21:49:13;;;;;;;10.40;5.10;;;;;;;-0.41;68.81;101122.84;4799227;29;20058;-66
2024/01/29 21:51:43;;;;;;;10.98;5.00;;;;;;;-0.43;68.75;101107.44;4798878;29;20497;-66
2024/01/29 21:54:09;;;;;;;13.40;5.10;;;;;;;-0.44;68.69;101117.59;4800681;29;20046;-65
2024/01/29 21:56:38;;;;;;;9.57;5.40;;;;;;;-0.59;68.70;101110.78;4801485;29;20053;-70
2024/01/29 21:59:04;;;;;;;14.02;5.25;;;;;;;-0.51;68.31;101137.69;4802479;29;20053;-68
2024/01/29 22:01:36;;;;;;;17.30;5.20;;;;;;;-0.55;69.35;101122.97;4802517;29;20046;-66
2024/01/29 22:04:02;;;;;;;10.02;5.18;;;;;;;-0.58;69.25;101130.44;4802730;29;20042;-67
2024/01/29 22:06:28;;;;;;;9.45;5.43;;;;;;;-0.36;68.91;101139.34;4802205;29;20053;-67
2024/01/29 22:08:53;;;;;;;11.27;5.38;;;;;;;-0.35;69.39;101128.31;4812687;29;20050;-66
2024/01/29 22:11:19;;;;;;;12.25;5.32;;;;;;;-0.39;69.00;101106.81;4818485;29;20042;-66
2024/01/29 22:13:45;;;;;;;12.43;5.40;;;;;;;-0.39;68.25;101099.16;4811837;29;20076;-68
2024/01/29 22:16:12;;;;;;;16.92;5.35;;;;;;;-0.35;69.15;101121.56;4807523;29;20046;-67
2024/01/29 22:18:37;;;;;;;17.08;5.07;;;;;;;-0.42;69.21;101137.34;4802709;29;20069;-65
2024/01/29 22:21:04;;;;;;;10.60;5.32;;;;;;;-0.26;69.49;101151.00;4786616;29;20498;-66
2024/01/29 22:23:33;;;;;;;14.80;5.50;;;;;;;-0.38;69.72;101120.47;4801761;29;20042;-66
2024/01/29 22:25:59;;;;;;;19.67;5.85;;;;;;;-0.19;68.59;101133.50;4799951;29;20042;-65
2024/01/29 22:28:24;;;;;;;14.52;7.00;;;;;;;-0.02;68.98;101136.16;4801484;29;20051;-66
2024/01/29 22:30:50;;;;;;;14.05;6.85;;;;;;;0.01;69.09;101145.66;4813582;29;20049;-65
2024/01/29 22:33:17;;;;;;;14.52;6.55;;;;;;;-0.09;68.67;101162.19;4797334;29;20065;-66
2024/01/29 22:35:43;;;;;;;14.77;6.90;;;;;;;-0.09;69.56;101152.81;4771605;29;20092;-66
2024/01/29 22:38:09;;;;;;;16.27;7.40;;;;;;;0.11;68.80;101148.81;4801212;29;20117;-66
2024/01/29 22:40:35;;;;;;;11.80;6.38;;;;;;;0.18;69.04;101139.78;4786299;29;20068;-65
2024/01/29 22:43:01;;;;;;;14.55;6.35;;;;;;;0.22;69.20;101136.59;4818223;29;20053;-67
2024/01/29 22:45:27;;;;;;;15.18;6.68;;;;;;;0.14;68.45;101141.31;4801286;29;20544;-67
2024/01/29 22:47:53;;;;;;;11.52;6.03;;;;;;;0.16;68.81;101149.06;4817050;29;20054;-66
2024/01/29 22:50:19;;;;;;;12.27;6.63;;;;;;;0.03;68.68;101126.16;4817986;29;20054;-66
2024/01/29 22:52:45;;;;;;;14.13;7.00;;;;;;;0.08;68.64;101140.97;4809828;29;20455;-68
2024/01/29 22:55:11;;;;;;;15.98;7.20;;;;;;;-0.07;68.88;101120.50;4801343;29;20778;-68
2024/01/29 22:57:37;;;;;;;11.63;5.70;;;;;;;0.15;68.81;101144.75;4766505;29;20038;-66
2024/01/29 23:00:08;;;;;;;12.57;5.82;;;;;;;0.02;68.83;101132.94;4786597;29;20125;-67
2024/01/29 23:02:34;;;;;;;14.15;6.40;;;;;;;0.08;69.17;101143.53;4785989;29;20103;-68
2024/01/29 23:05:00;;;;;;;13.00;5.80;;;;;;;-0.03;68.61;101125.00;4800078;29;20042;-67
2024/01/29 23:07:25;;;;;;;15.23;6.68;;;;;;;0.06;68.98;101119.50;4800952;29;20064;-67
2024/01/29 23:09:51;;;;;;;13.70;6.20;;;;;;;-0.01;68.61;101108.06;4799817;29;20098;-66
2024/01/29 23:12:17;;;;;;;12.30;5.97;;;;;;;-0.08;68.59;101088.03;4801312;29;20046;-67
2024/01/29 23:14:43;;;;;;;12.57;5.60;;;;;;;-0.01;68.33;101123.41;4800624;29;20046;-68
2024/01/29 23:17:09;;;;;;;12.85;5.65;;;;;;;-0.01;68.27;101122.56;4818026;29;20046;-67
2024/01/29 23:19:35;;;;;;;10.82;5.70;;;;;;;0.00;68.97;101126.88;4792231;29;20156;-68
2024/01/29 23:22:01;;;;;;;12.55;5.38;;;;;;;-0.09;68.49;101119.53;4801203;29;20054;-68
2024/01/29 23:24:27;;;;;;;12.93;5.93;;;;;;;-0.13;68.71;101109.06;4801208;29;20069;-68
2024/01/29 23:26:53;;;;;;;12.50;6.00;;;;;;;0.02;68.30;101129.50;4817113;29;20082;-68
2024/01/29 23:29:19;;;;;;;14.88;6.68;;;;;;;0.04;69.01;101120.25;4801120;29;20042;-68
2024/01/29 23:31:45;;;;;;;12.63;5.65;;;;;;;0.08;68.18;101124.75;4778192;29;20156;-68
2024/01/29 23:34:11;;;;;;;16.67;7.75;;;;;;;0.07;68.33;101144.31;4801106;29;20097;-68
2024/01/29 23:36:37;;;;;;;14.15;7.05;;;;;;;0.11;68.73;101138.56;4815622;29;20535;-68
2024/01/29 23:39:03;;;;;;;14.50;6.93;;;;;;;0.12;68.88;101116.41;4786384;29;20038;-68
2024/01/29 23:41:29;;;;;;;14.40;7.35;;;;;;;0.21;68.57;101133.97;4800691;29;20463;-68
2024/01/29 23:43:55;;;;;;;16.90;8.60;;;;;;;0.09;69.12;101101.78;4800516;29;20077;-67
2024/01/29 23:46:21;;;;;;;13.10;6.63;;;;;;;0.12;68.40;101086.59;4799768;29;20082;-68
2024/01/29 23:48:47;;;;;;;15.85;7.35;;;;;;;0.16;68.84;101110.66;4817129;29;20150;-69
2024/01/29 23:51:13;;;;;;;17.20;7.32;;;;;;;0.18;68.92;101121.88;4817077;29;20046;-67
2024/01/29 23:53:39;;;;;;;15.57;6.13;;;;;;;0.11;68.78;101112.97;4801110;29;20052;-68
2024/01/29 23:56:07;;;;;;;15.15;7.05;;;;;;;0.10;68.40;101105.22;4800638;29;20042;-69
2024/01/29 23:58:33;;;;;;;15.55;7.20;;;;;;;0.13;68.74;101120.72;4785972;29;20081;-67
